Time;durP1;ratioP1;P1;durP2;ratioP2;P2;SDS_P1;SDS_P2;PMS_P1;PMS_P2;Temp;Humidity;BMP_temperature;BMP_pressure;BME280_temperature;BME280_humidity;BME280_pressure;Samples;Min_cycle;Max_cycle;Signal;HPM_P1;HPM_P2
2023/07/01 00:02:13;;;;;;;6.93;5.80;;;18.90;87.40;;;;;;5061122;28;20526;-74
2023/07/01 00:04:40;;;;;;;6.53;5.82;;;18.90;87.40;;;;;;5062057;28;20028;-74
2023/07/01 00:07:07;;;;;;;7.80;5.75;;;18.90;87.80;;;;;;5062315;28;20388;-75
2023/07/01 00:09:33;;;;;;;5.90;5.30;;;18.80;87.90;;;;;;5060336;28;20469;-82
2023/07/01 00:11:59;;;;;;;6.32;5.72;;;18.90;87.90;;;;;;5061171;28;20032;-77
2023/07/01 00:14:25;;;;;;;8.43;6.38;;;18.90;88.20;;;;;;5061933;28;20419;-76
2023/07/01 00:16:51;;;;;;;8.85;5.90;;;18.90;88.30;;;;;;5060845;28;20036;-77
2023/07/01 00:19:17;;;;;;;7.93;5.53;;;18.90;88.50;;;;;;5060305;28;20044;-76
2023/07/01 00:21:43;;;;;;;8.02;6.47;;;18.90;88.60;;;;;;5062001;28;20098;-76
2023/07/01 00:24:09;;;;;;;8.35;6.10;;;18.90;88.70;;;;;;5060179;28;20025;-76
2023/07/01 00:26:35;;;;;;;7.03;5.75;;;18.90;89.10;;;;;;5061844;28;20182;-77
2023/07/01 00:29:01;;;;;;;6.10;5.45;;;18.90;89.10;;;;;;5059683;28;20037;-77
2023/07/01 00:31:27;;;;;;;7.47;5.70;;;18.90;89.10;;;;;;5061612;28;20062;-77
2023/07/01 00:33:53;;;;;;;7.80;5.80;;;18.90;89.30;;;;;;5061250;28;20058;-79
2023/07/01 00:36:19;;;;;;;8.45;5.82;;;18.90;89.40;;;;;;5058936;28;20025;-78
2023/07/01 00:38:45;;;;;;;6.82;5.95;;;18.90;89.40;;;;;;5061400;28;20519;-78
2023/07/01 00:41:11;;;;;;;6.32;5.53;;;18.90;89.60;;;;;;5044907;28;20041;-80
2023/07/01 00:43:37;;;;;;;6.97;6.28;;;18.90;90.00;;;;;;5062103;28;20060;-79
2023/07/01 00:46:04;;;;;;;6.32;5.72;;;18.90;90.10;;;;;;5060166;28;20035;-79
2023/07/01 00:48:30;;;;;;;6.30;5.60;;;18.90;90.00;;;;;;5060292;28;20037;-79
2023/07/01 00:50:56;;;;;;;6.85;6.07;;;19.00;90.00;;;;;;5062190;28;20074;-79
2023/07/01 00:53:23;;;;;;;7.07;5.68;;;19.00;90.30;;;;;;5059254;28;20025;-79
2023/07/01 00:55:51;;;;;;;5.85;5.25;;;19.00;90.00;;;;;;5060873;28;20028;-80
2023/07/01 00:58:17;;;;;;;6.00;5.50;;;19.00;90.10;;;;;;5046279;28;20048;-80
2023/07/01 01:00:43;;;;;;;6.63;6.00;;;19.00;90.10;;;;;;5061958;28;20032;-80
2023/07/01 01:03:43;;;;;;;7.05;5.93;;;19.10;90.10;;;;;;5062641;28;20033;-80
2023/07/01 01:06:18;;;;;;;5.63;5.10;;;19.10;90.30;;;;;;5045096;28;20082;-80
2023/07/01 01:08:57;;;;;;;6.50;5.50;;;19.10;90.20;;;;;;5060442;28;20534;-79
2023/07/01 01:11:26;;;;;;;5.72;5.22;;;19.10;90.10;;;;;;5061627;28;20037;-81
2023/07/01 01:13:56;;;;;;;6.63;5.53;;;19.10;90.20;;;;;;5059522;28;20620;-79
2023/07/01 01:16:22;;;;;;;5.85;5.35;;;19.20;90.20;;;;;;5060812;28;20056;-79
2023/07/01 01:18:50;;;;;;;7.90;5.13;;;19.20;90.20;;;;;;5059463;28;20071;-79
2023/07/01 01:21:17;;;;;;;6.18;5.45;;;19.20;90.20;;;;;;5060481;28;20029;-79
2023/07/01 01:23:49;;;;;;;5.93;5.13;;;19.20;90.10;;;;;;5060388;28;20589;-78
2023/07/01 01:26:26;;;;;;;8.75;5.45;;;19.20;90.20;;;;;;5061677;28;20036;-78
2023/07/01 01:28:54;;;;;;;6.25;5.65;;;19.10;90.20;;;;;;5058652;28;20399;-80
2023/07/01 01:31:20;;;;;;;7.25;5.63;;;19.20;90.20;;;;;;5061040;28;20031;-79
2023/07/01 01:33:48;;;;;;;6.85;5.13;;;19.20;90.20;;;;;;5059474;28;20451;-78
2023/07/01 01:36:34;;;;;;;5.97;4.93;;;19.20;90.30;;;;;;5060078;28;20182;-79
2023/07/01 01:39:05;;;;;;;6.10;5.53;;;19.20;90.20;;;;;;5059297;28;20029;-78
2023/07/01 01:41:54;;;;;;;6.13;5.53;;;19.20;90.40;;;;;;5061089;28;20033;-79
2023/07/01 01:44:27;;;;;;;6.07;5.57;;;19.20;90.30;;;;;;5046627;28;20037;-78
2023/07/01 01:46:54;;;;;;;6.70;6.10;;;19.20;90.40;;;;;;5058319;28;20032;-79
2023/07/01 01:49:20;;;;;;;6.03;5.43;;;19.20;90.50;;;;;;5061741;28;20166;-79
2023/07/01 01:51:46;;;;;;;6.32;5.50;;;19.30;90.50;;;;;;5061202;28;20094;-78
2023/07/01 01:54:14;;;;;;;6.03;5.35;;;19.20;90.40;;;;;;5058400;28;20071;-77
2023/07/01 01:56:41;;;;;;;6.03;5.43;;;19.30;90.40;;;;;;5060458;28;20530;-79
2023/07/01 01:59:09;;;;;;;5.72;5.20;;;19.30;90.30;;;;;;5028239;28;20032;-78
2023/07/01 02:01:38;;;;;;;5.82;5.32;;;19.30;90.30;;;;;;5062121;28;20586;-77
2023/07/01 02:04:04;;;;;;;6.05;5.32;;;19.30;90.30;;;;;;5062404;28;20036;-77
2023/07/01 02:06:30;;;;;;;5.85;5.35;;;19.30;90.40;;;;;;5061807;28;20152;-77
2023/07/01 02:08:57;;;;;;;5.85;5.35;;;19.30;90.30;;;;;;5061453;28;20083;-78
2023/07/01 02:11:23;;;;;;;7.60;6.07;;;19.30;90.50;;;;;;5059212;28;20474;-78
2023/07/01 02:13:49;;;;;;;6.10;5.28;;;19.30;90.40;;;;;;5060194;28;20527;-79
2023/07/01 02:16:15;;;;;;;5.90;5.30;;;19.30;90.40;;;;;;5057807;28;20079;-79
2023/07/01 02:18:41;;;;;;;5.75;5.25;;;19.30;90.50;;;;;;5045423;28;20060;-80
2023/07/01 02:21:07;;;;;;;6.13;5.53;;;19.30;90.40;;;;;;5057052;28;20126;-80
2023/07/01 02:23:33;;;;;;;6.95;5.18;;;19.30;90.30;;;;;;5056355;28;20044;-80
2023/07/01 02:25:59;;;;;;;5.82;5.32;;;19.30;90.40;;;;;;5059785;28;20033;-78
2023/07/01 02:28:25;;;;;;;6.03;5.43;;;19.30;90.40;;;;;;5043304;28;20128;-80
2023/07/01 02:30:51;;;;;;;6.28;5.65;;;19.40;90.30;;;;;;5060482;28;20047;-81
2023/07/01 02:33:17;;;;;;;7.30;6.05;;;19.40;90.40;;;;;;5061758;28;20497;-81
2023/07/01 02:35:43;;;;;;;6.65;5.85;;;19.40;90.40;;;;;;5056940;28;20527;-80
2023/07/01 02:38:09;;;;;;;5.82;5.25;;;19.40;90.40;;;;;;5059460;28;20499;-79
2023/07/01 02:40:35;;;;;;;5.72;5.22;;;19.40;90.40;;;;;;5060403;28;20041;-80
2023/07/01 02:43:02;;;;;;;8.27;5.85;;;19.40;90.50;;;;;;5059720;28;20562;-80
2023/07/01 02:45:28;;;;;;;6.10;5.47;;;19.50;90.50;;;;;;5057239;28;20029;-79
2023/07/01 02:47:54;;;;;;;6.50;5.57;;;19.40;90.50;;;;;;5056792;28;20033;-79
2023/07/01 02:50:19;;;;;;;6.43;5.65;;;19.50;90.50;;;;;;5058434;28;20597;-79
2023/07/01 02:52:45;;;;;;;6.25;5.07;;;19.50;90.40;;;;;;5058313;28;20033;-79
2023/07/01 02:55:11;;;;;;;5.93;5.30;;;19.50;90.40;;;;;;5057010;28;20017;-79
2023/07/01 02:57:37;;;;;;;5.93;5.43;;;19.50;90.60;;;;;;5062009;28;20511;-79
2023/07/01 03:00:07;;;;;;;6.20;5.50;;;19.50;90.40;;;;;;5060423;28;20036;-81
2023/07/01 03:02:33;;;;;;;6.40;5.80;;;19.50;90.50;;;;;;5059153;28;20033;-80
2023/07/01 03:05:00;;;;;;;6.30;5.68;;;19.50;90.50;;;;;;5059907;28;20511;-80
2023/07/01 03:07:26;;;;;;;6.57;5.22;;;19.60;90.60;;;;;;5060674;28;20101;-80
2023/07/01 03:09:52;;;;;;;6.57;5.40;;;19.60;90.70;;;;;;5058539;28;20507;-80
2023/07/01 03:12:18;;;;;;;7.05;6.07;;;19.60;90.60;;;;;;5060423;28;20044;-79
2023/07/01 03:14:44;;;;;;;7.22;5.40;;;19.60;90.60;;;;;;5059395;28;20047;-81
2023/07/01 03:17:11;;;;;;;11.13;6.18;;;19.60;90.40;;;;;;5062695;28;20041;-81
2023/07/01 03:19:37;;;;;;;6.00;5.30;;;19.70;90.40;;;;;;5063041;28;20039;-79
2023/07/01 03:22:03;;;;;;;6.82;5.90;;;19.70;90.40;;;;;;5061305;28;20057;-80
2023/07/01 03:24:33;;;;;;;6.95;6.03;;;19.70;90.40;;;;;;5062390;28;20407;-81
2023/07/01 03:27:03;;;;;;;6.13;5.63;;;19.80;90.30;;;;;;5060377;28;20359;-81
2023/07/01 03:29:30;;;;;;;6.47;5.40;;;19.80;90.20;;;;;;5062310;28;20094;-82
2023/07/01 03:31:56;;;;;;;6.72;5.93;;;19.90;90.10;;;;;;5063243;28;20037;-81
2023/07/01 03:34:22;;;;;;;7.63;5.90;;;19.90;90.10;;;;;;5063722;28;20476;-81
2023/07/01 03:36:48;;;;;;;7.15;6.10;;;20.00;90.20;;;;;;5061909;28;20400;-81
2023/07/01 03:39:16;;;;;;;7.13;5.68;;;20.00;90.10;;;;;;5064005;28;20043;-80
2023/07/01 03:41:42;;;;;;;7.35;5.97;;;20.10;90.10;;;;;;5063685;28;20544;-80
2023/07/01 03:44:08;;;;;;;7.40;6.35;;;20.10;90.00;;;;;;5063018;28;20032;-80
2023/07/01 03:46:34;;;;;;;7.88;6.30;;;20.10;90.10;;;;;;5060706;28;20357;-80
2023/07/01 03:49:00;;;;;;;6.93;6.25;;;20.20;90.20;;;;;;5062125;28;20017;-79
2023/07/01 03:51:26;;;;;;;6.93;6.22;;;20.20;90.00;;;;;;5062411;28;20119;-81
2023/07/01 03:53:52;;;;;;;6.30;5.78;;;20.20;90.00;;;;;;5060204;28;20029;-78
2023/07/01 03:56:18;;;;;;;6.97;6.38;;;20.30;89.90;;;;;;5061956;28;20074;-78
2023/07/01 03:58:44;;;;;;;6.82;6.22;;;20.30;89.80;;;;;;5063239;28;20070;-79
2023/07/01 04:01:10;;;;;;;7.63;6.82;;;20.30;89.70;;;;;;5063315;28;20535;-79
2023/07/01 04:03:37;;;;;;;7.32;6.30;;;20.30;89.80;;;;;;5061803;28;20040;-78
2023/07/01 04:06:05;;;;;;;7.25;6.55;;;20.30;89.50;;;;;;5063011;28;20066;-79
2023/07/01 04:08:31;;;;;;;6.30;5.78;;;20.40;89.60;;;;;;5062114;28;20091;-79
2023/07/01 04:10:57;;;;;;;6.25;5.75;;;20.40;89.20;;;;;;5063991;28;20040;-79
2023/07/01 04:13:23;;;;;;;6.50;5.90;;;20.40;89.10;;;;;;5062427;28;20425;-79
2023/07/01 04:15:49;;;;;;;7.25;6.47;;;20.50;89.10;;;;;;5062240;28;20518;-79
2023/07/01 04:18:15;;;;;;;8.80;6.72;;;20.50;89.30;;;;;;5060097;28;20029;-80
2023/07/01 04:20:41;;;;;;;8.80;6.90;;;20.50;89.00;;;;;;5061870;28;20048;-80
2023/07/01 04:23:07;;;;;;;7.15;6.45;;;20.50;88.60;;;;;;5062020;28;20036;-81
2023/07/01 04:25:32;;;;;;;6.68;6.10;;;20.50;88.50;;;;;;5061520;28;20047;-80
2023/07/01 04:28:01;;;;;;;7.65;6.18;;;20.60;88.50;;;;;;5061622;28;20830;-80
2023/07/01 04:30:27;;;;;;;7.40;6.55;;;20.60;88.10;;;;;;5060250;28;20087;-80
2023/07/01 04:32:53;;;;;;;7.38;6.68;;;20.60;88.20;;;;;;5061151;28;20028;-80
2023/07/01 04:35:19;;;;;;;9.30;6.82;;;20.70;87.90;;;;;;5061157;28;20085;-80
2023/07/01 04:37:46;;;;;;;6.82;6.20;;;20.70;87.80;;;;;;5060206;28;20399;-78
2023/07/01 04:40:12;;;;;;;8.07;6.95;;;20.80;87.60;;;;;;5058545;28;20051;-80
2023/07/01 04:42:50;;;;;;;5.82;5.32;;;20.90;87.60;;;;;;5063794;28;20033;-79
2023/07/01 04:45:18;;;;;;;6.03;5.53;;;21.10;86.60;;;;;;5061039;28;20081;-80
2023/07/01 04:47:45;;;;;;;6.45;5.63;;;21.30;85.70;;;;;;5060479;28;20471;-80
2023/07/01 04:50:11;;;;;;;6.82;6.13;;;21.40;85.30;;;;;;5059405;28;20488;-80
2023/07/01 04:52:37;;;;;;;6.97;6.15;;;21.50;84.80;;;;;;5061859;28;20073;-80
2023/07/01 04:55:03;;;;;;;6.68;6.07;;;21.50;84.60;;;;;;5060950;28;20029;-80
2023/07/01 04:57:29;;;;;;;6.20;5.70;;;21.60;84.50;;;;;;5060326;28;20463;-80
2023/07/01 04:59:55;;;;;;;5.97;5.47;;;21.70;84.50;;;;;;5061676;28;20114;-80
2023/07/01 05:02:21;;;;;;;6.55;5.95;;;21.80;84.20;;;;;;5060725;28;20033;-81
2023/07/01 05:04:46;;;;;;;6.43;5.85;;;21.90;83.80;;;;;;5062699;28;20506;-81
2023/07/01 05:07:12;;;;;;;6.18;5.55;;;22.00;83.60;;;;;;5059513;28;20079;-82
2023/07/01 05:09:38;;;;;;;5.55;5.07;;;22.10;83.30;;;;;;5061077;28;22301;-81
2023/07/01 05:12:05;;;;;;;5.78;5.28;;;22.30;83.00;;;;;;5061681;28;20061;-80
2023/07/01 05:14:31;;;;;;;5.35;4.85;;;22.40;82.50;;;;;;5059668;28;20859;-80
2023/07/01 05:16:56;;;;;;;5.25;4.50;;;22.50;82.20;;;;;;5059957;28;20036;-82
2023/07/01 05:19:22;;;;;;;4.78;4.38;;;22.60;82.80;;;;;;5058105;28;20036;-81
2023/07/01 05:21:50;;;;;;;5.05;4.40;;;22.80;81.90;;;;;;5059481;28;20432;-84
2023/07/01 05:24:16;;;;;;;5.25;4.75;;;22.90;81.50;;;;;;5060224;28;20123;-83
2023/07/01 05:26:49;;;;;;;4.93;4.43;;;23.00;80.80;;;;;;5061276;28;20032;-83
2023/07/01 05:29:15;;;;;;;4.60;4.20;;;23.10;80.40;;;;;;5059955;28;20029;-84
2023/07/01 05:31:42;;;;;;;6.05;4.68;;;23.20;80.30;;;;;;5059483;28;20043;-82
2023/07/01 05:34:08;;;;;;;4.68;4.30;;;23.30;80.10;;;;;;5060599;28;20404;-84
2023/07/01 05:36:34;;;;;;;5.10;4.55;;;23.30;79.50;;;;;;5061036;28;20576;-83
2023/07/01 05:39:00;;;;;;;4.82;4.43;;;23.30;79.20;;;;;;5060176;28;20052;-84
2023/07/01 05:41:26;;;;;;;5.00;4.60;;;23.30;79.10;;;;;;5060118;28;20033;-83
2023/07/01 05:43:55;;;;;;;5.13;4.72;;;23.30;79.10;;;;;;5060303;28;20526;-83
2023/07/01 05:46:21;;;;;;;4.80;4.40;;;23.30;78.90;;;;;;5060004;28;20021;-83
2023/07/01 05:48:46;;;;;;;4.93;4.45;;;23.30;79.00;;;;;;5060075;28;20496;-81
2023/07/01 05:51:12;;;;;;;5.18;4.35;;;23.40;79.30;;;;;;5059701;28;20025;-80
2023/07/01 05:53:38;;;;;;;4.50;4.10;;;23.40;79.10;;;;;;5057788;28;20048;-79
2023/07/01 05:56:04;;;;;;;4.97;4.47;;;23.60;78.80;;;;;;5061572;28;20025;-81
2023/07/01 05:58:30;;;;;;;4.90;4.50;;;23.50;78.60;;;;;;5059382;28;20057;-82
2023/07/01 06:00:56;;;;;;;4.72;4.38;;;23.60;78.50;;;;;;5061009;28;20039;-80
2023/07/01 06:03:22;;;;;;;4.50;4.20;;;23.70;78.50;;;;;;5059893;28;20043;-80
2023/07/01 06:05:48;;;;;;;4.60;4.15;;;23.70;77.80;;;;;;5060343;28;20519;-80
2023/07/01 06:08:14;;;;;;;5.28;4.65;;;23.70;78.10;;;;;;5060425;28;20564;-80
2023/07/01 06:10:40;;;;;;;4.90;4.40;;;23.80;78.00;;;;;;5061007;28;20673;-80
2023/07/01 06:13:06;;;;;;;4.50;4.20;;;23.70;78.00;;;;;;5060844;28;20495;-81
2023/07/01 06:15:32;;;;;;;4.50;4.10;;;23.70;77.60;;;;;;5058861;28;20048;-81
2023/07/01 06:17:58;;;;;;;4.63;3.88;;;23.70;77.50;;;;;;5045243;28;20052;-80
2023/07/01 06:20:23;;;;;;;4.93;4.53;;;23.70;77.40;;;;;;5060450;28;20040;-78
2023/07/01 06:22:49;;;;;;;4.85;4.45;;;23.70;77.30;;;;;;5057917;28;20041;-80
2023/07/01 06:25:15;;;;;;;4.75;4.35;;;23.70;77.40;;;;;;5061148;28;20036;-81
2023/07/01 06:27:41;;;;;;;4.50;4.10;;;23.70;77.20;;;;;;5058647;28;20036;-82
2023/07/01 06:30:08;;;;;;;4.78;4.28;;;23.70;77.20;;;;;;5056925;28;20033;-81
2023/07/01 06:32:33;;;;;;;4.82;4.32;;;23.70;77.30;;;;;;5060234;28;20059;-77
2023/07/01 06:34:59;;;;;;;4.60;4.20;;;23.70;77.30;;;;;;5062285;28;20120;-81
2023/07/01 06:37:25;;;;;;;4.80;4.30;;;23.80;77.70;;;;;;5059716;28;20056;-79
2023/07/01 06:39:51;;;;;;;4.60;4.20;;;23.90;77.30;;;;;;5058379;28;20032;-79
2023/07/01 06:42:18;;;;;;;4.18;3.70;;;24.00;77.30;;;;;;5062219;28;20036;-82
2023/07/01 06:44:44;;;;;;;5.05;4.18;;;24.00;77.10;;;;;;5058752;28;20485;-83
2023/07/01 06:47:10;;;;;;;4.20;3.80;;;24.10;76.50;;;;;;5057765;28;20074;-83
2023/07/01 06:49:36;;;;;;;4.25;3.85;;;24.10;76.20;;;;;;5060169;28;20063;-84
2023/07/01 06:52:02;;;;;;;4.30;3.90;;;24.10;75.90;;;;;;5041309;28;20033;-74
2023/07/01 06:54:28;;;;;;;4.10;3.70;;;24.00;75.70;;;;;;5060292;28;20044;-73
2023/07/01 06:56:54;;;;;;;4.47;3.92;;;24.00;75.20;;;;;;5060806;28;20033;-77
2023/07/01 06:59:20;;;;;;;4.05;3.60;;;24.00;75.40;;;;;;5061876;28;20045;-77
2023/07/01 07:01:46;;;;;;;4.00;3.70;;;24.00;75.30;;;;;;5062182;28;20043;-76
2023/07/01 07:04:12;;;;;;;3.63;3.33;;;24.00;76.00;;;;;;5030242;28;20064;-77
2023/07/01 07:06:38;;;;;;;5.72;3.60;;;24.20;76.00;;;;;;5062700;28;20581;-78
2023/07/01 07:09:04;;;;;;;5.78;3.88;;;24.30;75.80;;;;;;5061445;28;20029;-76
2023/07/01 07:11:31;;;;;;;4.10;3.80;;;24.40;75.70;;;;;;5048998;28;20123;-76
2023/07/01 07:13:57;;;;;;;4.95;3.30;;;24.50;75.60;;;;;;5063360;28;20040;-76
2023/07/01 07:16:23;;;;;;;3.78;3.20;;;24.60;75.70;;;;;;5062586;28;20036;-79
2023/07/01 07:18:49;;;;;;;3.72;3.42;;;24.80;76.10;;;;;;5048015;28;20512;-77
2023/07/01 07:21:15;;;;;;;5.10;3.42;;;24.80;75.20;;;;;;5048245;28;20036;-81
2023/07/01 07:23:41;;;;;;;4.82;3.10;;;24.80;75.00;;;;;;5064122;28;20037;-83
2023/07/01 07:26:07;;;;;;;4.00;3.53;;;24.70;74.20;;;;;;5061720;28;20042;-79
2023/07/01 07:28:35;;;;;;;3.85;3.50;;;24.70;73.80;;;;;;5063543;28;20040;-80
2023/07/01 07:31:00;;;;;;;3.97;3.67;;;24.60;73.70;;;;;;5066295;28;20567;-77
2023/07/01 07:33:26;;;;;;;6.07;3.90;;;24.50;74.10;;;;;;5068905;28;20123;-79
2023/07/01 07:35:52;;;;;;;4.25;3.85;;;24.40;74.80;;;;;;5062835;28;20040;-77
2023/07/01 07:38:18;;;;;;;4.25;3.70;;;24.40;74.70;;;;;;5071259;28;20112;-78
2023/07/01 07:40:44;;;;;;;4.05;3.60;;;24.40;75.60;;;;;;5069627;28;20028;-79
2023/07/01 07:43:10;;;;;;;6.63;3.55;;;24.50;76.30;;;;;;5063569;28;20031;-74
2023/07/01 07:45:37;;;;;;;6.55;3.88;;;24.60;77.00;;;;;;5064970;28;20028;-72
2023/07/01 07:48:03;;;;;;;4.80;3.30;;;24.70;76.90;;;;;;5067237;28;20032;-72
2023/07/01 07:50:29;;;;;;;3.60;3.30;;;24.80;78.20;;;;;;5061877;28;20032;-71
2023/07/01 07:52:55;;;;;;;3.85;3.38;;;24.80;76.80;;;;;;5062987;28;20033;-72
2023/07/01 07:55:21;;;;;;;6.95;3.55;;;24.80;77.00;;;;;;5061073;28;20028;-71
2023/07/01 07:57:48;;;;;;;5.63;3.97;;;24.80;76.50;;;;;;5061762;28;20117;-70
2023/07/01 08:00:14;;;;;;;6.10;3.20;;;24.80;76.80;;;;;;5061104;28;20063;-70
2023/07/01 08:02:44;;;;;;;6.95;3.42;;;24.80;77.00;;;;;;5063344;28;20035;-71
2023/07/01 08:05:17;;;;;;;6.10;3.47;;;24.80;77.40;;;;;;5061056;28;20048;-73
2023/07/01 08:07:45;;;;;;;3.95;3.10;;;24.80;77.30;;;;;;5059995;28;20028;-72
2023/07/01 08:10:11;;;;;;;6.32;3.63;;;24.90;78.70;;;;;;5060722;28;20032;-71
2023/07/01 08:12:37;;;;;;;4.15;3.30;;;24.90;76.60;;;;;;5059060;28;20052;-70
2023/07/01 08:15:04;;;;;;;2.97;2.75;;;24.90;76.40;;;;;;5058468;28;20036;-70
2023/07/01 08:17:30;;;;;;;3.97;3.42;;;24.90;76.80;;;;;;5063970;28;20048;-72
2023/07/01 08:19:56;;;;;;;4.13;3.08;;;24.90;76.50;;;;;;5056802;28;20048;-72
2023/07/01 08:22:22;;;;;;;3.20;2.90;;;25.00;76.40;;;;;;5061173;28;20091;-72
2023/07/01 08:24:48;;;;;;;4.95;3.00;;;24.90;76.00;;;;;;5062681;28;20472;-72
2023/07/01 08:27:14;;;;;;;4.20;3.00;;;24.90;75.80;;;;;;5062647;28;20083;-73
2023/07/01 08:29:39;;;;;;;5.35;3.17;;;24.90;75.50;;;;;;5062649;28;20473;-73
2023/07/01 08:32:06;;;;;;;6.00;3.05;;;24.90;75.80;;;;;;5063865;28;20036;-72
2023/07/01 08:34:35;;;;;;;3.72;2.72;;;25.00;75.90;;;;;;5061621;28;20028;-73
2023/07/01 08:37:01;;;;;;;3.28;2.70;;;25.00;75.80;;;;;;5060978;28;20032;-72
2023/07/01 08:39:27;;;;;;;4.13;3.20;;;24.90;75.90;;;;;;5060465;28;20171;-73
2023/07/01 08:42:04;;;;;;;3.20;2.90;;;24.90;76.10;;;;;;5059757;28;20060;-73
2023/07/01 08:44:31;;;;;;;2.92;2.63;;;24.90;75.50;;;;;;5061156;28;20118;-73
2023/07/01 08:46:57;;;;;;;5.93;3.45;;;24.90;75.70;;;;;;5059048;28;20067;-72
2023/07/01 08:49:24;;;;;;;6.18;3.25;;;24.90;75.20;;;;;;5060848;28;20029;-71
2023/07/01 08:52:00;;;;;;;6.05;3.40;;;24.90;75.50;;;;;;5061290;28;20581;-71
2023/07/01 08:54:26;;;;;;;5.55;3.03;;;25.00;75.20;;;;;;5066137;28;20495;-71
2023/07/01 08:56:52;;;;;;;6.40;3.83;;;24.90;75.50;;;;;;5061725;28;20511;-70
2023/07/01 08:59:18;;;;;;;6.93;3.58;;;25.00;74.90;;;;;;5065530;28;20086;-75
2023/07/01 09:01:45;;;;;;;6.28;4.18;;;25.00;75.20;;;;;;5068629;28;20376;-70
2023/07/01 09:04:12;;;;;;;8.77;5.43;;;24.90;75.50;;;;;;5072968;28;20021;-72
2023/07/01 09:06:38;;;;;;;7.85;5.22;;;25.00;74.40;;;;;;5073186;28;20124;-72
2023/07/01 09:09:04;;;;;;;14.70;5.57;;;25.00;75.00;;;;;;5069790;28;20464;-73
2023/07/01 09:11:30;;;;;;;11.15;5.57;;;25.00;75.10;;;;;;5070599;28;20119;-73
2023/07/01 09:13:56;;;;;;;11.60;6.00;;;25.00;74.10;;;;;;5073368;28;20032;-74
2023/07/01 09:16:32;;;;;;;15.63;5.75;;;25.00;74.40;;;;;;5072327;28;20055;-74
2023/07/01 09:19:04;;;;;;;7.13;4.93;;;25.00;73.50;;;;;;5070020;28;20159;-73
2023/07/01 09:21:32;;;;;;;7.22;5.10;;;25.00;73.90;;;;;;5067716;28;20079;-74
2023/07/01 09:24:02;;;;;;;7.95;5.10;;;24.90;74.20;;;;;;5069027;28;20124;-73
2023/07/01 09:26:30;;;;;;;7.93;4.85;;;24.90;74.60;;;;;;5064910;28;20381;-72
2023/07/01 09:28:57;;;;;;;10.73;5.72;;;24.90;74.70;;;;;;5065938;28;20043;-71
2023/07/01 09:31:25;;;;;;;8.35;4.70;;;25.00;74.20;;;;;;5060602;28;20082;-69
2023/07/01 09:34:01;;;;;;;9.25;5.13;;;25.00;73.50;;;;;;5058887;28;20132;-70
2023/07/01 09:36:30;;;;;;;10.38;5.05;;;25.00;74.70;;;;;;5060309;28;20028;-73
2023/07/01 09:38:57;;;;;;;9.50;4.72;;;25.00;75.00;;;;;;5060452;28;20040;-77
2023/07/01 09:41:26;;;;;;;9.40;4.95;;;24.90;75.20;;;;;;5059499;28;20048;-73
2023/07/01 09:43:57;;;;;;;8.60;4.47;;;24.90;75.50;;;;;;5060278;28;20529;-73
2023/07/01 09:46:40;;;;;;;11.38;4.55;;;25.00;75.70;;;;;;5060968;28;20032;-73
2023/07/01 09:49:07;;;;;;;12.68;4.93;;;25.10;74.10;;;;;;5057067;28;20033;-73
2023/07/01 09:51:44;;;;;;;8.50;4.63;;;25.00;75.00;;;;;;5057329;28;20037;-73
2023/07/01 09:54:31;;;;;;;7.00;4.63;;;24.90;75.30;;;;;;5056918;28;20461;-73
2023/07/01 09:56:59;;;;;;;6.88;4.00;;;24.90;75.50;;;;;;5060327;28;20037;-73
2023/07/01 09:59:26;;;;;;;5.90;3.67;;;24.90;75.60;;;;;;5058925;28;20538;-73
2023/07/01 10:01:55;;;;;;;6.53;3.85;;;24.90;75.50;;;;;;5060270;28;20032;-73
2023/07/01 10:04:28;;;;;;;6.97;4.47;;;24.90;76.00;;;;;;5059635;28;20032;-75
2023/07/01 10:06:54;;;;;;;6.30;4.50;;;24.90;75.40;;;;;;5060073;28;20043;-72
2023/07/01 10:09:23;;;;;;;4.65;4.15;;;24.90;73.60;;;;;;5058627;28;20029;-73
2023/07/01 10:11:52;;;;;;;4.22;3.85;;;24.90;73.90;;;;;;5060017;28;20162;-73
2023/07/01 10:14:25;;;;;;;4.75;3.55;;;24.90;73.10;;;;;;5058799;28;21829;-74
2023/07/01 10:16:51;;;;;;;4.50;3.60;;;24.90;74.00;;;;;;5057228;28;20033;-73
2023/07/01 10:19:46;;;;;;;5.22;3.78;;;24.80;74.00;;;;;;5059734;28;20083;-73
2023/07/01 10:22:23;;;;;;;4.13;3.65;;;24.90;74.30;;;;;;5049749;28;20044;-73
2023/07/01 10:25:03;;;;;;;5.10;3.78;;;24.80;73.60;;;;;;5059452;28;20033;-73
2023/07/01 10:27:59;;;;;;;4.10;3.72;;;24.80;73.60;;;;;;5060465;28;20028;-72
2023/07/01 10:30:26;;;;;;;4.20;3.80;;;24.80;73.90;;;;;;5061573;28;20071;-73
2023/07/01 10:32:52;;;;;;;5.40;4.68;;;24.80;74.00;;;;;;5063111;28;20041;-74
2023/07/01 10:35:18;;;;;;;5.05;3.90;;;24.80;73.70;;;;;;5062674;28;20068;-73
2023/07/01 10:38:21;;;;;;;5.45;4.03;;;24.80;73.80;;;;;;5063374;28;20433;-72
2023/07/01 10:40:47;;;;;;;3.92;3.58;;;24.80;73.20;;;;;;5057073;28;20083;-73
2023/07/01 10:43:36;;;;;;;4.38;3.97;;;24.80;73.60;;;;;;5063303;28;20056;-73
2023/07/01 10:46:24;;;;;;;4.03;3.72;;;24.70;73.80;;;;;;5062872;28;20086;-74
2023/07/01 10:49:02;;;;;;;3.75;3.45;;;24.80;74.00;;;;;;5063402;28;20051;-74
2023/07/01 10:51:31;;;;;;;3.85;3.45;;;24.80;74.00;;;;;;5060803;28;20523;-73
2023/07/01 10:54:05;;;;;;;4.25;3.85;;;24.80;74.10;;;;;;5062423;28;20457;-73
2023/07/01 10:56:34;;;;;;;4.07;3.65;;;24.80;73.80;;;;;;5063497;28;20082;-73
2023/07/01 10:59:23;;;;;;;4.22;3.90;;;24.70;73.40;;;;;;5064254;28;20024;-74
2023/07/01 11:01:51;;;;;;;4.55;4.15;;;24.80;73.00;;;;;;5061881;28;20055;-73
2023/07/01 11:04:18;;;;;;;3.80;3.50;;;24.80;73.60;;;;;;5061928;28;20667;-73
2023/07/01 11:06:51;;;;;;;4.68;3.72;;;24.70;73.60;;;;;;5064449;28;20041;-73
2023/07/01 11:09:34;;;;;;;4.10;3.80;;;24.80;73.60;;;;;;5062171;28;20041;-74
2023/07/01 11:12:03;;;;;;;3.95;3.65;;;24.80;73.60;;;;;;5062903;28;20036;-74
2023/07/01 11:14:34;;;;;;;3.92;3.58;;;24.70;73.70;;;;;;5063148;28;20473;-74
2023/07/01 11:17:20;;;;;;;4.05;3.65;;;24.70;73.60;;;;;;5061446;28;20044;-73
2023/07/01 11:19:52;;;;;;;4.25;3.85;;;24.70;73.70;;;;;;5062596;28;20148;-72
2023/07/01 11:22:18;;;;;;;5.60;4.20;;;24.70;73.40;;;;;;5061940;28;20045;-73
2023/07/01 11:24:44;;;;;;;4.38;4.00;;;24.70;73.00;;;;;;5061460;28;20047;-72
2023/07/01 11:27:10;;;;;;;4.20;3.90;;;24.70;73.00;;;;;;5061732;28;20044;-72
2023/07/01 11:29:37;;;;;;;4.88;4.47;;;24.70;73.00;;;;;;5061815;28;20170;-71
2023/07/01 11:32:05;;;;;;;4.35;3.95;;;24.70;72.60;;;;;;5062916;28;20032;-72
2023/07/01 11:34:32;;;;;;;4.03;3.72;;;24.70;72.60;;;;;;5062902;28;20517;-72
2023/07/01 11:36:59;;;;;;;4.93;4.10;;;24.70;72.60;;;;;;5062863;28;20036;-71
2023/07/01 11:39:26;;;;;;;4.85;3.90;;;24.70;72.60;;;;;;5063124;28;20071;-72
2023/07/01 11:41:58;;;;;;;4.45;4.13;;;24.70;72.80;;;;;;5060492;28;20037;-72
2023/07/01 11:44:26;;;;;;;4.57;4.20;;;24.60;72.80;;;;;;5062520;28;20511;-71
2023/07/01 11:46:53;;;;;;;4.28;3.97;;;24.70;72.90;;;;;;5062215;28;20032;-73
2023/07/01 11:49:26;;;;;;;4.43;4.03;;;24.60;72.90;;;;;;5063341;28;20067;-72
2023/07/01 11:52:06;;;;;;;4.80;4.30;;;24.60;72.70;;;;;;5062100;28;20029;-72
2023/07/01 11:54:48;;;;;;;5.30;4.82;;;24.70;72.80;;;;;;5059472;28;20037;-73
2023/07/01 11:57:16;;;;;;;5.03;4.63;;;24.70;72.80;;;;;;5062989;28;20032;-73
2023/07/01 11:59:46;;;;;;;5.30;4.80;;;24.60;72.80;;;;;;5062105;28;20500;-72
2023/07/01 12:02:12;;;;;;;4.60;4.20;;;24.60;72.70;;;;;;5062611;28;20028;-73
2023/07/01 12:04:39;;;;;;;4.15;3.80;;;24.60;72.70;;;;;;5061172;28;20707;-72
2023/07/01 12:07:18;;;;;;;5.53;4.30;;;24.70;72.70;;;;;;5062060;28;20055;-72
2023/07/01 12:09:45;;;;;;;5.00;4.60;;;24.60;72.50;;;;;;5061043;28;20037;-72
2023/07/01 12:12:15;;;;;;;4.72;4.20;;;24.60;72.40;;;;;;5061516;28;20070;-73
2023/07/01 12:14:41;;;;;;;4.82;4.43;;;24.60;72.40;;;;;;5063088;28;20033;-73
2023/07/01 12:17:08;;;;;;;4.47;4.07;;;24.60;72.20;;;;;;5059423;28;20075;-73
2023/07/01 12:19:34;;;;;;;4.80;4.22;;;24.70;71.90;;;;;;5061280;28;20032;-73
2023/07/01 12:22:00;;;;;;;4.20;3.90;;;24.70;71.70;;;;;;5061940;28;20063;-72
2023/07/01 12:24:29;;;;;;;4.13;3.83;;;24.70;71.70;;;;;;5060742;28;20033;-73
2023/07/01 12:26:58;;;;;;;4.50;4.03;;;24.70;71.50;;;;;;5061471;28;20052;-72
2023/07/01 12:29:24;;;;;;;4.28;3.97;;;24.70;71.30;;;;;;5061628;28;20226;-72
2023/07/01 12:31:53;;;;;;;4.40;4.00;;;24.60;71.20;;;;;;5061007;28;20040;-72
2023/07/01 12:34:19;;;;;;;4.40;4.00;;;24.70;71.00;;;;;;5063033;28;20033;-73
2023/07/01 12:36:46;;;;;;;4.43;3.90;;;24.60;71.00;;;;;;5061229;28;20037;-73
2023/07/01 12:39:17;;;;;;;4.30;3.90;;;24.70;71.30;;;;;;5062388;28;20032;-73
2023/07/01 12:41:47;;;;;;;4.30;3.90;;;24.60;71.10;;;;;;5060594;28;20032;-73
2023/07/01 12:44:14;;;;;;;4.07;3.67;;;24.60;71.30;;;;;;5060951;28;20511;-74
2023/07/01 12:46:43;;;;;;;4.53;3.88;;;24.60;71.00;;;;;;5061460;28;20028;-74
2023/07/01 12:49:13;;;;;;;4.80;3.88;;;24.70;70.90;;;;;;5061411;28;20172;-74
2023/07/01 12:51:41;;;;;;;4.40;4.00;;;24.60;70.50;;;;;;5061378;28;20100;-73